Terminal Aerodrome Forecast
Issued by NWS Upton, NY

Home | Current Version | Previous Version | Text Only | Print | Product List | Glossary On
Versions: 1 2 3 4 5 6 7 8 9 10 11 12 13 14 15 16 17 18 19 20 21 22 23 24 25 26 27 28 29 30 31 32
000
FTUS41 KOKX 300520
TAFLGA
TAF
KLGA 300520Z 3006/0106 19006KT P6SM FEW050 SCT250
     FM301400 16009KT P6SM FEW050 SCT150
     FM301800 16012G18KT P6SM SCT050 BKN120
     FM010000 15009KT P6SM SCT010 BKN050 BKN100=

USA.gov is the U.S. government's official web portal to all federal, state and local government web resources and services.